Terminal Aerodrome Forecast
Issued by NWS Houston/Galveston TX

Home | Current Version | Previous Version | Text Only | Print | Product List | Glossary On
Versions: 1 2 3 4 5 6 7 8 9 10 11 12 13 14 15 16 17 18 19 20 21 22 23 24 25 26 27 28 29 30 31 32 33 34 35 36 37 38 39 40 41 42 43 44 45 46 47 48 49 50
000
FTUS44 KHGX 292022 CCA
TAFHOU
TAF COR
KHOU 292022Z 2920/3018 36006KT P6SM VCSH SCT025 OVC140
      TEMPO 2920/2922 -SHRA BKN025
     FM300400 09005KT P6SM SCT025 BKN250
     FM300900 05006KT P6SM BKN020=

USA.gov is the U.S. government's official web portal to all federal, state and local government web resources and services.